Prescott, Arizona
Current Conditions -  °F | °C
As of 1:53 PM on Friday 28 Nov 2014 (Local Time) from KPRC Reporting Station
Clear Clear  
Wind Chill: 72°   Ceiling: Unl
Heat Index: 72°   Visibility: 10mi
Dew Point: 13°   Wind: 3mph
Humidity: 10%   Direction: 40°NE
Pressure: 30.11"   Gusts: NA
Location:  34.54°N, 112.47°W
Report Text: KPRC 282053Z 04003KT 10SM CLR 22/M11 A3011 RMK AO2 SLP147 T02221106 56027
Loading
Personal Weather Stations






























Interactive Weather Map New forecast layout! Learn more

10-Day Weather Forecast

Advertisements
Track Severe Weather on mobile